sensor_id;sensor_type;location;lat;lon;timestamp;pressure;altitude;pressure_sealevel;temperature;humidity
37892;BME280;45797;47.466;9.486;2024-01-15T00:04:29;94776.19;;;4.50;74.35
37892;BME280;45797;47.466;9.486;2024-01-15T00:09:50;94769.25;;;4.50;74.50
37892;BME280;45797;47.466;9.486;2024-01-15T00:15:11;94741.13;;;4.44;74.93
37892;BME280;45797;47.466;9.486;2024-01-15T00:20:35;94742.97;;;4.42;75.15
37892;BME280;45797;47.466;9.486;2024-01-15T00:26:03;94749.94;;;4.42;74.84
37892;BME280;45797;47.466;9.486;2024-01-15T00:31:24;94738.53;;;4.44;75.02
37892;BME280;45797;47.466;9.486;2024-01-15T00:36:47;94746.84;;;4.49;74.97
37892;BME280;45797;47.466;9.486;2024-01-15T00:42:07;94749.13;;;4.54;75.18
37892;BME280;45797;47.466;9.486;2024-01-15T00:47:29;94749.13;;;4.54;74.84
37892;BME280;45797;47.466;9.486;2024-01-15T00:53:00;94737.09;;;4.53;75.19
37892;BME280;45797;47.466;9.486;2024-01-15T00:58:20;94736.25;;;4.52;74.70
37892;BME280;45797;47.466;9.486;2024-01-15T01:03:41;94754.22;;;4.55;74.62
37892;BME280;45797;47.466;9.486;2024-01-15T01:09:04;94755.88;;;4.56;74.87
37892;BME280;45797;47.466;9.486;2024-01-15T01:14:29;94754.84;;;4.59;75.20
37892;BME280;45797;47.466;9.486;2024-01-15T01:19:49;94755.06;;;4.56;74.79
37892;BME280;45797;47.466;9.486;2024-01-15T01:25:10;94757.72;;;4.54;74.98
37892;BME280;45797;47.466;9.486;2024-01-15T01:30:33;94752.66;;;4.53;75.18
37892;BME280;45797;47.466;9.486;2024-01-15T01:35:53;94770.16;;;4.49;75.29
37892;BME280;45797;47.466;9.486;2024-01-15T01:41:15;94797.31;;;4.44;75.16
37892;BME280;45797;47.466;9.486;2024-01-15T01:46:37;94801.88;;;4.40;75.70
37892;BME280;45797;47.466;9.486;2024-01-15T01:52:02;94799.66;;;4.34;75.77
37892;BME280;45797;47.466;9.486;2024-01-15T01:57:25;94805.25;;;4.28;75.42
37892;BME280;45797;47.466;9.486;2024-01-15T02:02:46;94800.34;;;4.23;75.47
37892;BME280;45797;47.466;9.486;2024-01-15T02:08:06;94802.31;;;4.20;75.97
37892;BME280;45797;47.466;9.486;2024-01-15T02:13:43;94808.34;;;4.06;75.84
37892;BME280;45797;47.466;9.486;2024-01-15T02:19:05;94810.50;;;3.99;75.85
37892;BME280;45797;47.466;9.486;2024-01-15T02:24:26;94812.34;;;3.97;76.05
37892;BME280;45797;47.466;9.486;2024-01-15T02:29:48;94804.03;;;3.92;76.15
37892;BME280;45797;47.466;9.486;2024-01-15T02:35:09;94809.22;;;3.92;75.98
37892;BME280;45797;47.466;9.486;2024-01-15T02:40:38;94811.25;;;3.87;75.70
37892;BME280;45797;47.466;9.486;2024-01-15T02:45:58;94812.66;;;3.79;75.83
37892;BME280;45797;47.466;9.486;2024-01-15T02:51:28;94827.44;;;3.77;75.91
37892;BME280;45797;47.466;9.486;2024-01-15T02:56:49;94833.75;;;3.72;75.96
37892;BME280;45797;47.466;9.486;2024-01-15T03:02:20;94829.78;;;3.67;75.82
37892;BME280;45797;47.466;9.486;2024-01-15T03:07:43;94830.22;;;3.59;76.25
37892;BME280;45797;47.466;9.486;2024-01-15T03:13:05;94826.38;;;3.52;76.40
37892;BME280;45797;47.466;9.486;2024-01-15T03:18:25;94823.50;;;3.42;76.12
37892;BME280;45797;47.466;9.486;2024-01-15T03:23:48;94825.41;;;3.39;76.21
37892;BME280;45797;47.466;9.486;2024-01-15T03:29:09;94819.81;;;3.32;75.74
37892;BME280;45797;47.466;9.486;2024-01-15T03:34:31;94817.38;;;3.29;76.22
37892;BME280;45797;47.466;9.486;2024-01-15T03:40:08;94802.78;;;3.28;76.43
37892;BME280;45797;47.466;9.486;2024-01-15T03:45:29;94801.84;;;3.29;76.26
37892;BME280;45797;47.466;9.486;2024-01-15T03:51:02;94803.06;;;3.24;75.92
37892;BME280;45797;47.466;9.486;2024-01-15T03:56:28;94816.34;;;3.18;75.67
37892;BME280;45797;47.466;9.486;2024-01-15T04:01:49;94811.28;;;3.16;76.23
37892;BME280;45797;47.466;9.486;2024-01-15T04:07:13;94813.03;;;3.15;76.20
37892;BME280;45797;47.466;9.486;2024-01-15T04:12:34;94812.75;;;3.06;75.86
37892;BME280;45797;47.466;9.486;2024-01-15T04:18:02;94810.78;;;2.95;75.92
37892;BME280;45797;47.466;9.486;2024-01-15T04:23:25;94819.81;;;2.88;76.33
37892;BME280;45797;47.466;9.486;2024-01-15T04:28:47;94815.72;;;2.84;76.40
37892;BME280;45797;47.466;9.486;2024-01-15T04:34:07;94819.44;;;2.80;75.96
37892;BME280;45797;47.466;9.486;2024-01-15T04:39:29;94815.44;;;2.74;76.09
37892;BME280;45797;47.466;9.486;2024-01-15T04:44:51;94825.94;;;2.71;76.12
37892;BME280;45797;47.466;9.486;2024-01-15T04:50:31;94808.88;;;2.69;76.05
37892;BME280;45797;47.466;9.486;2024-01-15T04:55:59;94801.22;;;2.67;75.90
37892;BME280;45797;47.466;9.486;2024-01-15T05:01:31;94810.72;;;2.67;76.15
37892;BME280;45797;47.466;9.486;2024-01-15T05:07:10;94827.16;;;2.66;75.61
37892;BME280;45797;47.466;9.486;2024-01-15T05:12:31;94825.22;;;2.69;75.36
37892;BME280;45797;47.466;9.486;2024-01-15T05:18:07;94828.81;;;2.67;75.53
37892;BME280;45797;47.466;9.486;2024-01-15T05:23:28;94805.72;;;2.64;75.55
37892;BME280;45797;47.466;9.486;2024-01-15T05:28:58;94814.56;;;2.60;75.32
37892;BME280;45797;47.466;9.486;2024-01-15T05:34:23;94815.59;;;2.57;75.35
37892;BME280;45797;47.466;9.486;2024-01-15T05:39:52;94826.16;;;2.52;75.06
37892;BME280;45797;47.466;9.486;2024-01-15T05:45:22;94821.09;;;2.51;75.22
37892;BME280;45797;47.466;9.486;2024-01-15T05:50:42;94825.53;;;2.49;74.91
37892;BME280;45797;47.466;9.486;2024-01-15T05:56:13;94814.44;;;2.47;74.77
37892;BME280;45797;47.466;9.486;2024-01-15T06:01:34;94830.09;;;2.44;74.57
37892;BME280;45797;47.466;9.486;2024-01-15T06:07:05;94822.53;;;2.41;74.25
37892;BME280;45797;47.466;9.486;2024-01-15T06:12:34;94816.63;;;2.39;74.57
37892;BME280;45797;47.466;9.486;2024-01-15T06:17:58;94811.28;;;2.42;74.32
37892;BME280;45797;47.466;9.486;2024-01-15T06:23:19;94805.91;;;2.45;74.36
37892;BME280;45797;47.466;9.486;2024-01-15T06:28:41;94810.09;;;2.47;74.58
37892;BME280;45797;47.466;9.486;2024-01-15T06:34:07;94817.03;;;2.47;74.77
37892;BME280;45797;47.466;9.486;2024-01-15T06:39:35;94804.16;;;2.45;74.32
37892;BME280;45797;47.466;9.486;2024-01-15T06:45:02;94801.59;;;2.45;73.92
37892;BME280;45797;47.466;9.486;2024-01-15T06:50:24;94795.59;;;2.45;74.20
37892;BME280;45797;47.466;9.486;2024-01-15T06:55:45;94781.00;;;2.44;74.14
37892;BME280;45797;47.466;9.486;2024-01-15T07:01:08;94780.91;;;2.45;74.48
37892;BME280;45797;47.466;9.486;2024-01-15T07:06:29;94783.59;;;2.44;73.98
37892;BME280;45797;47.466;9.486;2024-01-15T07:11:59;94783.59;;;2.44;74.26
37892;BME280;45797;47.466;9.486;2024-01-15T07:17:20;94793.09;;;2.43;74.47
37892;BME280;45797;47.466;9.486;2024-01-15T07:22:46;94794.84;;;2.43;73.89
37892;BME280;45797;47.466;9.486;2024-01-15T07:28:18;94796.69;;;2.41;73.65
37892;BME280;45797;47.466;9.486;2024-01-15T07:33:38;94788.94;;;2.41;73.53
37892;BME280;45797;47.466;9.486;2024-01-15T07:38:59;94788.94;;;2.41;73.75
37892;BME280;45797;47.466;9.486;2024-01-15T07:44:20;94801.88;;;2.41;73.80
37892;BME280;45797;47.466;9.486;2024-01-15T07:49:41;94805.19;;;2.43;73.36
37892;BME280;45797;47.466;9.486;2024-01-15T07:55:01;94791.25;;;2.45;73.33
37892;BME280;45797;47.466;9.486;2024-01-15T08:00:27;94804.94;;;2.47;73.13
37892;BME280;45797;47.466;9.486;2024-01-15T08:05:57;94796.50;;;2.44;73.61
37892;BME280;45797;47.466;9.486;2024-01-15T08:11:20;94793.78;;;2.47;73.36
37892;BME280;45797;47.466;9.486;2024-01-15T08:16:41;94794.50;;;2.49;73.13
37892;BME280;45797;47.466;9.486;2024-01-15T08:22:01;94808.16;;;2.51;73.18
37892;BME280;45797;47.466;9.486;2024-01-15T08:27:24;94808.91;;;2.53;73.23
37892;BME280;45797;47.466;9.486;2024-01-15T08:32:45;94804.75;;;2.50;72.89
37892;BME280;45797;47.466;9.486;2024-01-15T08:38:06;94808.91;;;2.53;73.59
37892;BME280;45797;47.466;9.486;2024-01-15T08:43:29;94803.59;;;2.56;73.55
37892;BME280;45797;47.466;9.486;2024-01-15T08:48:52;94818.22;;;2.55;73.01
37892;BME280;45797;47.466;9.486;2024-01-15T08:54:16;94809.59;;;2.56;72.95
37892;BME280;45797;47.466;9.486;2024-01-15T08:59:40;94813.94;;;2.56;73.07
37892;BME280;45797;47.466;9.486;2024-01-15T09:05:04;94813.06;;;2.55;73.29
37892;BME280;45797;47.466;9.486;2024-01-15T09:10:28;94812.22;;;2.55;72.91
37892;BME280;45797;47.466;9.486;2024-01-15T09:15:52;94816.50;;;2.56;73.32
37892;BME280;45797;47.466;9.486;2024-01-15T09:21:13;94824.25;;;2.56;73.12
37892;BME280;45797;47.466;9.486;2024-01-15T09:26:34;94826.75;;;2.57;72.82
37892;BME280;45797;47.466;9.486;2024-01-15T09:31:56;94825.75;;;2.60;73.24
37892;BME280;45797;47.466;9.486;2024-01-15T09:37:17;94830.06;;;2.60;72.35
37892;BME280;45797;47.466;9.486;2024-01-15T09:42:40;94862.75;;;2.61;72.93
37892;BME280;45797;47.466;9.486;2024-01-15T09:48:14;94835.50;;;2.55;72.69
37892;BME280;45797;47.466;9.486;2024-01-15T09:53:35;94826.06;;;2.54;72.74
37892;BME280;45797;47.466;9.486;2024-01-15T09:59:00;94812.22;;;2.55;72.64
37892;BME280;45797;47.466;9.486;2024-01-15T10:04:21;94800.06;;;2.57;72.65
37892;BME280;45797;47.466;9.486;2024-01-15T10:09:43;94791.22;;;2.61;72.43
37892;BME280;45797;47.466;9.486;2024-01-15T10:15:14;94787.72;;;2.62;72.29
37892;BME280;45797;47.466;9.486;2024-01-15T10:20:59;94782.63;;;2.61;72.26
37892;BME280;45797;47.466;9.486;2024-01-15T10:26:24;94769.44;;;2.65;72.13
37892;BME280;45797;47.466;9.486;2024-01-15T10:31:54;94762.44;;;2.67;71.95
37892;BME280;45797;47.466;9.486;2024-01-15T10:37:17;94753.69;;;2.70;71.46
37892;BME280;45797;47.466;9.486;2024-01-15T10:42:37;94743.97;;;2.73;71.92
37892;BME280;45797;47.466;9.486;2024-01-15T10:47:58;94740.56;;;2.73;71.74
37892;BME280;45797;47.466;9.486;2024-01-15T10:53:19;94738.75;;;2.75;71.77
37892;BME280;45797;47.466;9.486;2024-01-15T10:58:50;94727.19;;;2.80;71.45
37892;BME280;45797;47.466;9.486;2024-01-15T11:04:13;94730.16;;;2.89;71.28
37892;BME280;45797;47.466;9.486;2024-01-15T11:09:35;94726.47;;;2.93;71.15
37892;BME280;45797;47.466;9.486;2024-01-15T11:15:06;94721.03;;;2.97;70.86
37892;BME280;45797;47.466;9.486;2024-01-15T11:20:31;94729.50;;;2.99;71.15
37892;BME280;45797;47.466;9.486;2024-01-15T11:25:52;94726.75;;;3.02;70.77
37892;BME280;45797;47.466;9.486;2024-01-15T11:31:14;94723.88;;;3.07;70.46
37892;BME280;45797;47.466;9.486;2024-01-15T11:42:22;94719.25;;;3.12;70.17
37892;BME280;45797;47.466;9.486;2024-01-15T11:53:45;94707.25;;;3.11;70.60
37892;BME280;45797;47.466;9.486;2024-01-15T11:59:17;94692.75;;;3.08;70.50
37892;BME280;45797;47.466;9.486;2024-01-15T12:04:37;94672.81;;;3.10;70.01
37892;BME280;45797;47.466;9.486;2024-01-15T12:09:59;94654.53;;;3.13;70.43
37892;BME280;45797;47.466;9.486;2024-01-15T12:15:20;94643.97;;;3.17;70.04
37892;BME280;45797;47.466;9.486;2024-01-15T12:20:42;94626.72;;;3.17;69.98
37892;BME280;45797;47.466;9.486;2024-01-15T12:26:03;94623.50;;;3.13;69.89
37892;BME280;45797;47.466;9.486;2024-01-15T12:31:24;94632.91;;;3.14;70.17
37892;BME280;45797;47.466;9.486;2024-01-15T12:36:46;94671.50;;;3.18;69.75
37892;BME280;45797;47.466;9.486;2024-01-15T12:42:08;94658.47;;;3.19;69.74
37892;BME280;45797;47.466;9.486;2024-01-15T12:47:40;94659.31;;;3.20;69.36
37892;BME280;45797;47.466;9.486;2024-01-15T12:53:01;94644.44;;;3.23;69.06
37892;BME280;45797;47.466;9.486;2024-01-15T12:58:43;94642.59;;;3.25;69.46
37892;BME280;45797;47.466;9.486;2024-01-15T13:04:03;94633.69;;;3.29;69.62
37892;BME280;45797;47.466;9.486;2024-01-15T13:09:32;94639.59;;;3.31;69.29
37892;BME280;45797;47.466;9.486;2024-01-15T13:14:53;94627.41;;;3.33;69.42
37892;BME280;45797;47.466;9.486;2024-01-15T13:20:14;94645.31;;;3.36;69.04
37892;BME280;45797;47.466;9.486;2024-01-15T13:25:34;94641.81;;;3.37;69.20
37892;BME280;45797;47.466;9.486;2024-01-15T13:30:57;94651.06;;;3.41;69.17
37892;BME280;45797;47.466;9.486;2024-01-15T13:36:22;94642.38;;;3.42;68.70
37892;BME280;45797;47.466;9.486;2024-01-15T13:41:44;94655.09;;;3.46;68.58
37892;BME280;45797;47.466;9.486;2024-01-15T13:47:12;94655.09;;;3.46;68.69
37892;BME280;45797;47.466;9.486;2024-01-15T13:52:33;94660.19;;;3.47;68.59
37892;BME280;45797;47.466;9.486;2024-01-15T13:57:55;94654.91;;;3.49;68.67
37892;BME280;45797;47.466;9.486;2024-01-15T14:03:16;94650.38;;;3.52;68.41
37892;BME280;45797;47.466;9.486;2024-01-15T14:08:37;94669.94;;;3.56;68.14
37892;BME280;45797;47.466;9.486;2024-01-15T14:14:15;94667.38;;;3.56;68.11
37892;BME280;45797;47.466;9.486;2024-01-15T14:19:37;94664.50;;;3.61;67.86
37892;BME280;45797;47.466;9.486;2024-01-15T14:24:58;94679.81;;;3.64;67.99
37892;BME280;45797;47.466;9.486;2024-01-15T14:30:19;94685.63;;;3.67;67.97
37892;BME280;45797;47.466;9.486;2024-01-15T14:35:40;94683.88;;;3.68;68.08
37892;BME280;45797;47.466;9.486;2024-01-15T14:41:01;94678.69;;;3.68;67.66
37892;BME280;45797;47.466;9.486;2024-01-15T14:46:27;94697.63;;;3.68;67.97
37892;BME280;45797;47.466;9.486;2024-01-15T14:51:47;94712.34;;;3.68;67.57
37892;BME280;45797;47.466;9.486;2024-01-15T14:57:14;94693.59;;;3.64;67.81
37892;BME280;45797;47.466;9.486;2024-01-15T15:02:35;94725.59;;;3.63;67.45
37892;BME280;45797;47.466;9.486;2024-01-15T15:07:58;94714.56;;;3.60;68.07
37892;BME280;45797;47.466;9.486;2024-01-15T15:13:19;94725.84;;;3.59;67.59
37892;BME280;45797;47.466;9.486;2024-01-15T15:18:49;94743.06;;;3.60;67.72
37892;BME280;45797;47.466;9.486;2024-01-15T15:24:14;94754.34;;;3.59;67.77
37892;BME280;45797;47.466;9.486;2024-01-15T15:29:36;94772.44;;;3.59;67.62
37892;BME280;45797;47.466;9.486;2024-01-15T15:35:01;94767.28;;;3.59;67.16
37892;BME280;45797;47.466;9.486;2024-01-15T15:40:23;94793.25;;;3.57;67.79
37892;BME280;45797;47.466;9.486;2024-01-15T15:45:46;94808.16;;;3.54;67.89
37892;BME280;45797;47.466;9.486;2024-01-15T15:51:09;94816.13;;;3.51;67.20
37892;BME280;45797;47.466;9.486;2024-01-15T15:56:30;94824.88;;;3.48;67.49
37892;BME280;45797;47.466;9.486;2024-01-15T16:01:57;94846.69;;;3.44;67.52
37892;BME280;45797;47.466;9.486;2024-01-15T16:07:21;94857.31;;;3.39;67.33
37892;BME280;45797;47.466;9.486;2024-01-15T16:13:06;94856.75;;;3.34;67.51
37892;BME280;45797;47.466;9.486;2024-01-15T16:18:55;94863.13;;;3.29;67.96
37892;BME280;45797;47.466;9.486;2024-01-15T16:24:19;94883.25;;;3.24;68.26
37892;BME280;45797;47.466;9.486;2024-01-15T16:29:45;94887.03;;;3.18;67.51
37892;BME280;45797;47.466;9.486;2024-01-15T16:35:15;94872.13;;;3.07;68.07
37892;BME280;45797;47.466;9.486;2024-01-15T16:40:37;94890.56;;;3.01;67.86
37892;BME280;45797;47.466;9.486;2024-01-15T16:46:01;94892.69;;;2.95;68.76
37892;BME280;45797;47.466;9.486;2024-01-15T16:51:21;94911.78;;;2.92;68.64
37892;BME280;45797;47.466;9.486;2024-01-15T16:56:42;94919.09;;;2.85;68.83
37892;BME280;45797;47.466;9.486;2024-01-15T17:02:02;94924.50;;;2.81;68.91
37892;BME280;45797;47.466;9.486;2024-01-15T17:07:25;94925.31;;;2.81;68.99
37892;BME280;45797;47.466;9.486;2024-01-15T17:12:48;94931.41;;;2.80;69.06
37892;BME280;45797;47.466;9.486;2024-01-15T17:18:12;94933.25;;;2.78;68.93
37892;BME280;45797;47.466;9.486;2024-01-15T17:23:32;94941.09;;;2.77;68.50
37892;BME280;45797;47.466;9.486;2024-01-15T17:28:54;94949.69;;;2.77;68.94
37892;BME280;45797;47.466;9.486;2024-01-15T17:34:19;94967.19;;;2.72;69.38
37892;BME280;45797;47.466;9.486;2024-01-15T17:39:39;94979.13;;;2.75;69.27
37892;BME280;45797;47.466;9.486;2024-01-15T17:45:02;94963.63;;;2.75;68.76
37892;BME280;45797;47.466;9.486;2024-01-15T17:50:25;94974.72;;;2.77;69.06
37892;BME280;45797;47.466;9.486;2024-01-15T17:55:48;94972.28;;;2.74;68.78
37892;BME280;45797;47.466;9.486;2024-01-15T18:01:09;94986.94;;;2.73;69.43
37892;BME280;45797;47.466;9.486;2024-01-15T18:06:32;94993.97;;;2.71;69.43
37892;BME280;45797;47.466;9.486;2024-01-15T18:11:54;94990.81;;;2.66;69.16
37892;BME280;45797;47.466;9.486;2024-01-15T18:17:29;95002.03;;;2.65;69.33
37892;BME280;45797;47.466;9.486;2024-01-15T18:22:53;95005.47;;;2.66;69.51
37892;BME280;45797;47.466;9.486;2024-01-15T18:28:25;95012.56;;;2.62;69.84
37892;BME280;45797;47.466;9.486;2024-01-15T18:33:46;95018.63;;;2.61;69.44
37892;BME280;45797;47.466;9.486;2024-01-15T18:39:08;95033.22;;;2.62;69.68
37892;BME280;45797;47.466;9.486;2024-01-15T18:44:36;95035.06;;;2.60;69.40
37892;BME280;45797;47.466;9.486;2024-01-15T18:50:05;95044.66;;;2.58;69.24
37892;BME280;45797;47.466;9.486;2024-01-15T18:55:28;95051.66;;;2.56;69.59
37892;BME280;45797;47.466;9.486;2024-01-15T19:00:50;95044.97;;;2.52;69.31
37892;BME280;45797;47.466;9.486;2024-01-15T19:06:12;95060.72;;;2.47;69.38
37892;BME280;45797;47.466;9.486;2024-01-15T19:11:41;95067.78;;;2.44;69.43
37892;BME280;45797;47.466;9.486;2024-01-15T19:17:12;95079.97;;;2.42;69.44
37892;BME280;45797;47.466;9.486;2024-01-15T19:22:41;95099.78;;;2.41;69.21
37892;BME280;45797;47.466;9.486;2024-01-15T19:28:02;95114.53;;;2.39;69.36
37892;BME280;45797;47.466;9.486;2024-01-15T19:33:24;95110.44;;;2.35;69.05
37892;BME280;45797;47.466;9.486;2024-01-15T19:38:45;95124.50;;;2.29;69.35
37892;BME280;45797;47.466;9.486;2024-01-15T19:44:06;95109.22;;;2.25;69.01
37892;BME280;45797;47.466;9.486;2024-01-15T19:49:54;95140.47;;;2.20;69.20
37892;BME280;45797;47.466;9.486;2024-01-15T19:55:25;95144.34;;;2.12;69.18
37892;BME280;45797;47.466;9.486;2024-01-15T20:00:46;95161.13;;;2.03;69.74
37892;BME280;45797;47.466;9.486;2024-01-15T20:06:07;95145.94;;;1.97;69.61
37892;BME280;45797;47.466;9.486;2024-01-15T20:11:35;95164.06;;;1.95;69.49
37892;BME280;45797;47.466;9.486;2024-01-15T20:16:58;95163.09;;;1.98;69.55
37892;BME280;45797;47.466;9.486;2024-01-15T20:22:23;95161.34;;;1.98;69.47
37892;BME280;45797;47.466;9.486;2024-01-15T20:27:45;95174.31;;;1.97;69.46
37892;BME280;45797;47.466;9.486;2024-01-15T20:33:06;95175.09;;;1.99;69.17
37892;BME280;45797;47.466;9.486;2024-01-15T20:38:28;95186.19;;;2.01;69.31
37892;BME280;45797;47.466;9.486;2024-01-15T20:43:48;95197.28;;;2.03;69.12
37892;BME280;45797;47.466;9.486;2024-01-15T20:49:17;95199.09;;;2.01;69.20
37892;BME280;45797;47.466;9.486;2024-01-15T20:54:41;95197.28;;;2.03;68.89
37892;BME280;45797;47.466;9.486;2024-01-15T21:00:06;95186.31;;;1.98;68.47
37892;BME280;45797;47.466;9.486;2024-01-15T21:05:32;95205.31;;;1.97;69.02
37892;BME280;45797;47.466;9.486;2024-01-15T21:10:55;95208.97;;;1.93;68.93
37892;BME280;45797;47.466;9.486;2024-01-15T21:16:15;95205.63;;;1.91;68.99
37892;BME280;45797;47.466;9.486;2024-01-15T21:21:38;95214.19;;;1.91;68.57
37892;BME280;45797;47.466;9.486;2024-01-15T21:27:10;95227.19;;;1.90;68.73
37892;BME280;45797;47.466;9.486;2024-01-15T21:32:32;95231.56;;;1.88;68.64
37892;BME280;45797;47.466;9.486;2024-01-15T21:38:00;95238.34;;;1.90;68.74
37892;BME280;45797;47.466;9.486;2024-01-15T21:43:28;95240.91;;;1.90;68.90
37892;BME280;45797;47.466;9.486;2024-01-15T21:48:56;95246.00;;;1.92;68.55
37892;BME280;45797;47.466;9.486;2024-01-15T21:54:30;95249.44;;;1.92;68.77
37892;BME280;45797;47.466;9.486;2024-01-15T21:59:50;95250.19;;;1.94;68.31
37892;BME280;45797;47.466;9.486;2024-01-15T22:05:11;95230.38;;;1.95;68.02
37892;BME280;45797;47.466;9.486;2024-01-15T22:10:33;95232.19;;;1.93;68.61
37892;BME280;45797;47.466;9.486;2024-01-15T22:15:54;95236.38;;;1.95;68.55
37892;BME280;45797;47.466;9.486;2024-01-15T22:21:16;95246.75;;;1.94;68.63
37892;BME280;45797;47.466;9.486;2024-01-15T22:26:55;95246.91;;;1.91;68.23
37892;BME280;45797;47.466;9.486;2024-01-15T22:32:16;95250.19;;;1.94;67.98
37892;BME280;45797;47.466;9.486;2024-01-15T22:37:43;95257.09;;;1.94;68.45
37892;BME280;45797;47.466;9.486;2024-01-15T22:43:08;95246.84;;;1.92;68.58
37892;BME280;45797;47.466;9.486;2024-01-15T22:48:29;95263.25;;;1.91;68.43
37892;BME280;45797;47.466;9.486;2024-01-15T22:53:49;95266.78;;;1.89;68.23
37892;BME280;45797;47.466;9.486;2024-01-15T22:59:12;95260.94;;;1.85;68.41
37892;BME280;45797;47.466;9.486;2024-01-15T23:04:37;95260.09;;;1.85;68.44
37892;BME280;45797;47.466;9.486;2024-01-15T23:10:05;95266.94;;;1.86;67.96
37892;BME280;45797;47.466;9.486;2024-01-15T23:15:26;95275.59;;;1.85;68.39
37892;BME280;45797;47.466;9.486;2024-01-15T23:20:48;95273.91;;;1.84;67.83
37892;BME280;45797;47.466;9.486;2024-01-15T23:26:28;95286.97;;;1.81;68.02
37892;BME280;45797;47.466;9.486;2024-01-15T23:31:49;95269.03;;;1.78;68.20
37892;BME280;45797;47.466;9.486;2024-01-15T23:37:14;95263.88;;;1.78;67.92
37892;BME280;45797;47.466;9.486;2024-01-15T23:42:36;95270.03;;;1.75;68.15
37892;BME280;45797;47.466;9.486;2024-01-15T23:47:57;95279.78;;;1.68;68.32
37892;BME280;45797;47.466;9.486;2024-01-15T23:53:18;95279.09;;;1.65;68.46
37892;BME280;45797;47.466;9.486;2024-01-15T23:58:52;95287.66;;;1.65;68.58
